sensor_id;sensor_type;location;lat;lon;timestamp;pressure;altitude;pressure_sealevel;temperature;humidity
10482;BME280;5288;42.334;23.876;2023-09-08T00:00:38;56160.13;;;-140.56;85.55
10482;BME280;5288;42.334;23.876;2023-09-08T00:03:05;56106.75;;;-140.56;85.80
10482;BME280;5288;42.334;23.876;2023-09-08T00:05:32;56130.47;;;-140.56;86.53
10482;BME280;5288;42.334;23.876;2023-09-08T00:08:00;56120.59;;;-140.56;86.23
10482;BME280;5288;42.334;23.876;2023-09-08T00:10:27;56106.75;;;-140.56;85.82
10482;BME280;5288;42.334;23.876;2023-09-08T00:12:54;56134.41;;;-140.56;86.50
10482;BME280;5288;42.334;23.876;2023-09-08T00:15:21;56126.50;;;-140.56;86.49
10482;BME280;5288;42.334;23.876;2023-09-08T00:17:48;56112.69;;;-140.56;86.34
10482;BME280;5288;42.334;23.876;2023-09-08T00:20:15;56130.47;;;-140.56;87.61
10482;BME280;5288;42.334;23.876;2023-09-08T00:22:42;56132.44;;;-140.56;89.25
10482;BME280;5288;42.334;23.876;2023-09-08T00:25:10;56150.22;;;-140.56;90.57
10482;BME280;5288;42.334;23.876;2023-09-08T00:27:37;56138.38;;;-140.56;91.30
10482;BME280;5288;42.334;23.876;2023-09-08T00:30:06;56146.28;;;-140.56;91.12
10482;BME280;5288;42.334;23.876;2023-09-08T00:32:33;56122.56;;;-140.56;91.13
10482;BME280;5288;42.334;23.876;2023-09-08T00:34:59;56118.59;;;-140.56;91.25
10482;BME280;5288;42.334;23.876;2023-09-08T00:37:26;56148.25;;;-140.56;91.41
10482;BME280;5288;42.334;23.876;2023-09-08T00:39:53;56130.47;;;-140.56;91.94
10482;BME280;5288;42.334;23.876;2023-09-08T00:42:22;56124.53;;;-140.56;91.15
10482;BME280;5288;42.334;23.876;2023-09-08T00:44:48;56158.13;;;-140.56;92.20
10482;BME280;5288;42.334;23.876;2023-09-08T00:47:15;56130.47;;;-140.56;92.48
10482;BME280;5288;42.334;23.876;2023-09-08T00:49:42;56116.63;;;-140.56;92.27
10482;BME280;5288;42.334;23.876;2023-09-08T00:52:10;56138.38;;;-140.56;92.81
10482;BME280;5288;42.334;23.876;2023-09-08T00:54:37;56156.16;;;-140.56;93.18
10482;BME280;5288;42.334;23.876;2023-09-08T00:57:04;56146.28;;;-140.56;93.80
10482;BME280;5288;42.334;23.876;2023-09-08T00:59:33;56116.63;;;-140.56;94.31
10482;BME280;5288;42.334;23.876;2023-09-08T01:02:01;56122.56;;;-140.56;94.19
10482;BME280;5288;42.334;23.876;2023-09-08T01:04:28;56148.25;;;-140.56;94.11
10482;BME280;5288;42.334;23.876;2023-09-08T01:06:56;56132.44;;;-140.56;94.21
10482;BME280;5288;42.334;23.876;2023-09-08T01:09:24;56136.41;;;-140.56;94.27
10482;BME280;5288;42.334;23.876;2023-09-08T01:11:51;56136.41;;;-140.56;94.38
10482;BME280;5288;42.334;23.876;2023-09-08T01:14:20;56124.53;;;-140.56;94.79
10482;BME280;5288;42.334;23.876;2023-09-08T01:16:49;56110.72;;;-140.56;94.19
10482;BME280;5288;42.334;23.876;2023-09-08T01:19:16;56148.25;;;-140.56;93.58
10482;BME280;5288;42.334;23.876;2023-09-08T01:22:11;56120.59;;;-140.56;93.50
10482;BME280;5288;42.334;23.876;2023-09-08T01:25:04;56128.50;;;-140.56;94.16
10482;BME280;5288;42.334;23.876;2023-09-08T01:27:35;56152.22;;;-140.56;93.41
10482;BME280;5288;42.334;23.876;2023-09-08T01:30:03;56156.16;;;-140.56;93.95
10482;BME280;5288;42.334;23.876;2023-09-08T01:32:32;56162.09;;;-140.56;93.45
10482;BME280;5288;42.334;23.876;2023-09-08T01:34:59;56181.84;;;-140.56;93.24
10482;BME280;5288;42.334;23.876;2023-09-08T01:37:26;56171.97;;;-140.56;93.05
10482;BME280;5288;42.334;23.876;2023-09-08T01:39:53;56134.41;;;-140.56;92.64
10482;BME280;5288;42.334;23.876;2023-09-08T01:42:22;56148.25;;;-140.56;92.84
10482;BME280;5288;42.334;23.876;2023-09-08T01:44:49;56175.91;;;-140.56;92.95
10482;BME280;5288;42.334;23.876;2023-09-08T01:47:16;56187.78;;;-140.56;93.64
10482;BME280;5288;42.334;23.876;2023-09-08T01:49:42;56168.00;;;-140.56;94.06
10482;BME280;5288;42.334;23.876;2023-09-08T01:52:09;56171.97;;;-140.56;94.32
10482;BME280;5288;42.334;23.876;2023-09-08T01:54:36;56179.88;;;-140.56;94.16
10482;BME280;5288;42.334;23.876;2023-09-08T01:57:04;56199.63;;;-140.56;93.97
10482;BME280;5288;42.334;23.876;2023-09-08T01:59:32;56171.97;;;-140.56;93.95
10482;BME280;5288;42.334;23.876;2023-09-08T02:01:59;56164.06;;;-140.56;93.87
10482;BME280;5288;42.334;23.876;2023-09-08T02:04:26;56170.00;;;-140.56;93.62
10482;BME280;5288;42.334;23.876;2023-09-08T02:06:53;56158.13;;;-140.56;94.17
10482;BME280;5288;42.334;23.876;2023-09-08T02:09:20;56189.75;;;-140.56;94.13
10482;BME280;5288;42.334;23.876;2023-09-08T02:11:47;56170.00;;;-140.56;93.59
10482;BME280;5288;42.334;23.876;2023-09-08T02:14:14;56164.06;;;-140.56;93.67
10482;BME280;5288;42.334;23.876;2023-09-08T02:16:42;56181.84;;;-140.56;94.10
10482;BME280;5288;42.334;23.876;2023-09-08T02:19:09;56187.78;;;-140.56;96.40
10482;BME280;5288;42.334;23.876;2023-09-08T02:21:36;56183.81;;;-140.56;97.90
10482;BME280;5288;42.334;23.876;2023-09-08T02:24:04;56187.78;;;-140.56;97.93
10482;BME280;5288;42.334;23.876;2023-09-08T02:26:31;56219.41;;;-140.56;98.27
10482;BME280;5288;42.334;23.876;2023-09-08T02:28:59;56187.78;;;-140.56;98.78
10482;BME280;5288;42.334;23.876;2023-09-08T02:31:26;56195.69;;;-140.56;99.37
10482;BME280;5288;42.334;23.876;2023-09-08T02:33:54;56203.59;;;-140.56;99.48
10482;BME280;5288;42.334;23.876;2023-09-08T02:36:21;56207.53;;;-140.56;98.92
10482;BME280;5288;42.334;23.876;2023-09-08T02:38:50;56237.19;;;-140.56;98.87
10482;BME280;5288;42.334;23.876;2023-09-08T02:41:17;56221.38;;;-140.56;98.09
10482;BME280;5288;42.334;23.876;2023-09-08T02:43:44;56211.50;;;-140.56;98.20
10482;BME280;5288;42.334;23.876;2023-09-08T02:46:11;56183.81;;;-140.56;97.78
10482;BME280;5288;42.334;23.876;2023-09-08T02:48:39;56207.53;;;-140.56;97.51
10482;BME280;5288;42.334;23.876;2023-09-08T02:51:08;56235.22;;;-140.56;96.82
10482;BME280;5288;42.334;23.876;2023-09-08T02:53:35;56215.44;;;-140.56;96.77
10482;BME280;5288;42.334;23.876;2023-09-08T02:56:02;56205.56;;;-140.56;96.69
10482;BME280;5288;42.334;23.876;2023-09-08T02:58:31;56191.72;;;-140.56;96.35
10482;BME280;5288;42.334;23.876;2023-09-08T03:01:09;56219.41;;;-140.56;96.82
10482;BME280;5288;42.334;23.876;2023-09-08T03:03:37;56193.72;;;-140.56;96.30
10482;BME280;5288;42.334;23.876;2023-09-08T03:06:04;56209.50;;;-140.56;96.80
10482;BME280;5288;42.334;23.876;2023-09-08T03:08:32;56229.28;;;-140.56;96.91
10482;BME280;5288;42.334;23.876;2023-09-08T03:10:59;56197.66;;;-140.56;96.65
10482;BME280;5288;42.334;23.876;2023-09-08T03:13:26;56211.50;;;-140.56;97.22
10482;BME280;5288;42.334;23.876;2023-09-08T03:15:54;56193.72;;;-140.56;96.80
10482;BME280;5288;42.334;23.876;2023-09-08T03:18:22;56235.22;;;-140.56;99.07
10482;BME280;5288;42.334;23.876;2023-09-08T03:20:49;56203.59;;;-140.56;100.00
10482;BME280;5288;42.334;23.876;2023-09-08T03:23:16;56199.63;;;-140.56;100.00
10482;BME280;5288;42.334;23.876;2023-09-08T03:25:45;56193.72;;;-140.56;100.00
10482;BME280;5288;42.334;23.876;2023-09-08T03:28:14;56207.53;;;-140.56;99.79
10482;BME280;5288;42.334;23.876;2023-09-08T03:30:41;56213.47;;;-140.56;99.28
10482;BME280;5288;42.334;23.876;2023-09-08T03:33:08;56233.22;;;-140.56;99.60
10482;BME280;5288;42.334;23.876;2023-09-08T03:35:35;56211.50;;;-140.56;99.63
10482;BME280;5288;42.334;23.876;2023-09-08T03:38:02;56201.63;;;-140.56;99.42
10482;BME280;5288;42.334;23.876;2023-09-08T03:40:29;56207.53;;;-140.56;99.18
10482;BME280;5288;42.334;23.876;2023-09-08T03:42:57;56189.75;;;-140.56;98.58
10482;BME280;5288;42.334;23.876;2023-09-08T03:45:24;56195.69;;;-140.56;98.15
10482;BME280;5288;42.334;23.876;2023-09-08T03:47:51;56227.31;;;-140.56;97.86
10482;BME280;5288;42.334;23.876;2023-09-08T03:50:18;56225.31;;;-140.56;97.51
10482;BME280;5288;42.334;23.876;2023-09-08T03:52:45;56251.03;;;-140.56;97.10
10482;BME280;5288;42.334;23.876;2023-09-08T03:55:12;56219.41;;;-140.56;97.00
10482;BME280;5288;42.334;23.876;2023-09-08T03:57:39;56258.94;;;-140.56;97.15
10482;BME280;5288;42.334;23.876;2023-09-08T04:00:08;56203.59;;;-140.56;96.98
10482;BME280;5288;42.334;23.876;2023-09-08T04:02:37;56205.56;;;-140.56;97.37
10482;BME280;5288;42.334;23.876;2023-09-08T04:05:04;56211.50;;;-140.56;97.73
10482;BME280;5288;42.334;23.876;2023-09-08T04:07:32;56237.19;;;-140.56;98.35
10482;BME280;5288;42.334;23.876;2023-09-08T04:09:59;56243.13;;;-140.56;98.73
10482;BME280;5288;42.334;23.876;2023-09-08T04:12:26;56239.16;;;-140.56;98.90
10482;BME280;5288;42.334;23.876;2023-09-08T04:14:52;56221.38;;;-140.56;99.04
10482;BME280;5288;42.334;23.876;2023-09-08T04:17:21;56221.38;;;-140.56;99.24
10482;BME280;5288;42.334;23.876;2023-09-08T04:19:48;56251.03;;;-140.56;98.84
10482;BME280;5288;42.334;23.876;2023-09-08T04:22:15;56235.22;;;-140.56;99.25
10482;BME280;5288;42.334;23.876;2023-09-08T04:24:42;56258.94;;;-140.56;99.83
10482;BME280;5288;42.334;23.876;2023-09-08T04:27:09;56262.88;;;-140.56;100.00
10482;BME280;5288;42.334;23.876;2023-09-08T04:29:36;56217.41;;;-140.56;100.00
10482;BME280;5288;42.334;23.876;2023-09-08T04:32:03;56233.22;;;-140.56;100.00
10482;BME280;5288;42.334;23.876;2023-09-08T04:34:37;56243.13;;;-140.56;100.00
10482;BME280;5288;42.334;23.876;2023-09-08T04:37:04;56227.31;;;-140.56;100.00
10482;BME280;5288;42.334;23.876;2023-09-08T04:39:31;56249.03;;;-140.56;100.00
10482;BME280;5288;42.334;23.876;2023-09-08T04:41:58;56219.41;;;-140.56;100.00
10482;BME280;5288;42.334;23.876;2023-09-08T04:44:25;56276.72;;;-140.56;100.00
10482;BME280;5288;42.334;23.876;2023-09-08T04:46:53;56247.06;;;-140.56;100.00
10482;BME280;5288;42.334;23.876;2023-09-08T04:49:20;56251.03;;;-140.56;100.00
10482;BME280;5288;42.334;23.876;2023-09-08T04:51:48;56209.50;;;-140.56;100.00
10482;BME280;5288;42.334;23.876;2023-09-08T04:54:15;56245.09;;;-140.56;100.00
10482;BME280;5288;42.334;23.876;2023-09-08T04:56:42;56251.03;;;-140.56;100.00
10482;BME280;5288;42.334;23.876;2023-09-08T04:59:09;56199.63;;;-140.56;100.00
10482;BME280;5288;42.334;23.876;2023-09-08T05:01:36;56209.50;;;-140.56;100.00
10482;BME280;5288;42.334;23.876;2023-09-08T05:04:03;56197.66;;;-140.56;100.00
10482;BME280;5288;42.334;23.876;2023-09-08T05:06:31;56258.94;;;-140.56;100.00
10482;BME280;5288;42.334;23.876;2023-09-08T05:08:59;56195.69;;;-140.56;100.00
10482;BME280;5288;42.334;23.876;2023-09-08T05:11:26;56251.03;;;-140.56;100.00
10482;BME280;5288;42.334;23.876;2023-09-08T05:13:53;56209.50;;;-140.56;100.00
10482;BME280;5288;42.334;23.876;2023-09-08T05:16:20;56209.50;;;-140.56;100.00
10482;BME280;5288;42.334;23.876;2023-09-08T05:19:01;56219.41;;;-140.56;100.00
10482;BME280;5288;42.334;23.876;2023-09-08T05:21:28;56235.22;;;-140.56;100.00
10482;BME280;5288;42.334;23.876;2023-09-08T05:23:55;56229.28;;;-140.56;100.00
10482;BME280;5288;42.334;23.876;2023-09-08T05:26:24;56241.13;;;-140.56;100.00
10482;BME280;5288;42.334;23.876;2023-09-08T05:28:51;56258.94;;;-140.56;100.00
10482;BME280;5288;42.334;23.876;2023-09-08T05:31:18;56251.03;;;-140.56;100.00
10482;BME280;5288;42.334;23.876;2023-09-08T05:33:44;56241.13;;;-140.56;100.00
10482;BME280;5288;42.334;23.876;2023-09-08T05:36:11;56207.53;;;-140.56;100.00
10482;BME280;5288;42.334;23.876;2023-09-08T05:38:38;56243.13;;;-140.56;100.00
10482;BME280;5288;42.334;23.876;2023-09-08T05:41:05;56227.31;;;-140.56;100.00
10482;BME280;5288;42.334;23.876;2023-09-08T05:43:35;56233.22;;;-140.56;100.00
10482;BME280;5288;42.334;23.876;2023-09-08T05:46:02;56227.31;;;-140.56;100.00
10482;BME280;5288;42.334;23.876;2023-09-08T05:48:29;56235.22;;;-140.56;100.00
10482;BME280;5288;42.334;23.876;2023-09-08T05:50:56;56215.44;;;-140.56;100.00
10482;BME280;5288;42.334;23.876;2023-09-08T05:53:24;56223.34;;;-140.56;100.00
10482;BME280;5288;42.334;23.876;2023-09-08T05:55:50;56239.16;;;-140.56;100.00
10482;BME280;5288;42.334;23.876;2023-09-08T05:58:18;56205.56;;;-140.56;100.00
10482;BME280;5288;42.334;23.876;2023-09-08T06:00:46;56221.38;;;-140.56;100.00
10482;BME280;5288;42.334;23.876;2023-09-08T06:03:13;56239.16;;;-140.56;100.00
10482;BME280;5288;42.334;23.876;2023-09-08T06:05:40;56211.50;;;-140.56;100.00
10482;BME280;5288;42.334;23.876;2023-09-08T06:08:07;56233.22;;;-140.56;100.00
10482;BME280;5288;42.334;23.876;2023-09-08T06:10:34;56179.88;;;-140.56;100.00
10482;BME280;5288;42.334;23.876;2023-09-08T06:13:01;56189.75;;;-140.56;100.00
10482;BME280;5288;42.334;23.876;2023-09-08T06:15:28;56205.56;;;-140.56;100.00
10482;BME280;5288;42.334;23.876;2023-09-08T06:17:56;56166.03;;;-140.56;98.12
10482;BME280;5288;42.334;23.876;2023-09-08T06:20:23;56177.91;;;-140.56;98.00
10482;BME280;5288;42.334;23.876;2023-09-08T06:22:52;56205.56;;;-140.56;96.56
10482;BME280;5288;42.334;23.876;2023-09-08T06:25:19;56187.78;;;-140.56;96.69
10482;BME280;5288;42.334;23.876;2023-09-08T06:27:46;56185.81;;;-140.56;96.42
10482;BME280;5288;42.334;23.876;2023-09-08T06:30:13;56185.81;;;-140.56;94.94
10482;BME280;5288;42.334;23.876;2023-09-08T06:32:41;56158.13;;;-140.56;94.36
10482;BME280;5288;42.334;23.876;2023-09-08T06:35:10;56160.13;;;-140.56;94.11
10482;BME280;5288;42.334;23.876;2023-09-08T06:37:37;56150.22;;;-140.56;94.01
10482;BME280;5288;42.334;23.876;2023-09-08T06:40:06;56144.31;;;-140.56;93.25
10482;BME280;5288;42.334;23.876;2023-09-08T06:42:33;56177.91;;;-140.56;92.17
10482;BME280;5288;42.334;23.876;2023-09-08T06:45:00;56189.75;;;-140.56;91.78
10482;BME280;5288;42.334;23.876;2023-09-08T06:47:27;56152.22;;;-140.56;91.05
10482;BME280;5288;42.334;23.876;2023-09-08T06:49:54;56164.06;;;-140.56;91.85
10482;BME280;5288;42.334;23.876;2023-09-08T06:52:22;56134.41;;;-140.56;89.65
10482;BME280;5288;42.334;23.876;2023-09-08T06:54:50;56122.56;;;-140.56;89.12
10482;BME280;5288;42.334;23.876;2023-09-08T06:57:18;56146.28;;;-140.56;89.26
10482;BME280;5288;42.334;23.876;2023-09-08T06:59:45;56128.50;;;-140.56;87.05
10482;BME280;5288;42.334;23.876;2023-09-08T07:02:12;56168.00;;;-140.56;87.86
10482;BME280;5288;42.334;23.876;2023-09-08T07:04:39;56116.63;;;-140.56;87.41
10482;BME280;5288;42.334;23.876;2023-09-08T07:07:06;56122.56;;;-140.56;85.22
10482;BME280;5288;42.334;23.876;2023-09-08T07:09:35;56118.59;;;-140.56;85.09
10482;BME280;5288;42.334;23.876;2023-09-08T07:12:03;56124.53;;;-140.56;86.60
10482;BME280;5288;42.334;23.876;2023-09-08T07:14:30;56118.59;;;-140.56;84.99
10482;BME280;5288;42.334;23.876;2023-09-08T07:16:57;56077.09;;;-140.56;83.94
10482;BME280;5288;42.334;23.876;2023-09-08T07:19:25;56088.97;;;-140.56;80.77
10482;BME280;5288;42.334;23.876;2023-09-08T07:21:52;56102.81;;;-140.56;80.39
10482;BME280;5288;42.334;23.876;2023-09-08T07:24:19;56073.16;;;-140.56;78.87
10482;BME280;5288;42.334;23.876;2023-09-08T07:26:48;56085.00;;;-140.56;78.42
10482;BME280;5288;42.334;23.876;2023-09-08T07:29:16;56092.91;;;-140.56;73.13
10482;BME280;5288;42.334;23.876;2023-09-08T07:31:43;56051.41;;;-140.56;70.33
10482;BME280;5288;42.334;23.876;2023-09-08T07:34:10;56071.19;;;-140.56;71.38
10482;BME280;5288;42.334;23.876;2023-09-08T07:36:37;56073.16;;;-140.56;69.67
10482;BME280;5288;42.334;23.876;2023-09-08T07:39:04;56019.81;;;-140.56;66.80
10482;BME280;5288;42.334;23.876;2023-09-08T07:41:31;56065.25;;;-140.56;62.59
10482;BME280;5288;42.334;23.876;2023-09-08T07:43:59;56073.16;;;-140.56;62.42
10482;BME280;5288;42.334;23.876;2023-09-08T07:46:26;56011.91;;;-140.56;61.62
10482;BME280;5288;42.334;23.876;2023-09-08T07:48:53;56031.66;;;-140.56;61.43
10482;BME280;5288;42.334;23.876;2023-09-08T07:51:20;56041.53;;;-140.56;60.56
10482;BME280;5288;42.334;23.876;2023-09-08T07:53:47;56069.22;;;-140.56;55.06
10482;BME280;5288;42.334;23.876;2023-09-08T07:56:14;56021.78;;;-140.56;57.39
10482;BME280;5288;42.334;23.876;2023-09-08T07:58:41;56029.69;;;-140.56;57.36
10482;BME280;5288;42.334;23.876;2023-09-08T08:01:10;56013.88;;;-140.56;53.97
10482;BME280;5288;42.334;23.876;2023-09-08T08:03:36;56023.75;;;-140.56;51.58
10482;BME280;5288;42.334;23.876;2023-09-08T08:06:04;56041.53;;;-140.56;53.81
10482;BME280;5288;42.334;23.876;2023-09-08T08:08:31;56025.72;;;-140.56;50.30
10482;BME280;5288;42.334;23.876;2023-09-08T08:10:58;56031.66;;;-140.56;49.99
10482;BME280;5288;42.334;23.876;2023-09-08T08:13:25;56019.81;;;-140.56;53.45
10482;BME280;5288;42.334;23.876;2023-09-08T08:15:52;56007.94;;;-140.56;50.51
10482;BME280;5288;42.334;23.876;2023-09-08T08:18:20;56029.69;;;-140.56;49.10
10482;BME280;5288;42.334;23.876;2023-09-08T08:20:47;56017.81;;;-140.56;47.33
10482;BME280;5288;42.334;23.876;2023-09-08T08:23:14;55998.06;;;-140.56;47.41
10482;BME280;5288;42.334;23.876;2023-09-08T08:25:41;55998.06;;;-140.56;49.65
10482;BME280;5288;42.334;23.876;2023-09-08T08:28:08;56007.94;;;-140.56;44.85
10482;BME280;5288;42.334;23.876;2023-09-08T08:30:35;55986.22;;;-140.56;50.38
10482;BME280;5288;42.334;23.876;2023-09-08T08:33:02;55966.44;;;-140.56;46.04
10482;BME280;5288;42.334;23.876;2023-09-08T08:35:31;55946.69;;;-140.56;50.39
10482;BME280;5288;42.334;23.876;2023-09-08T08:37:58;55960.53;;;-140.56;44.62
10482;BME280;5288;42.334;23.876;2023-09-08T08:40:24;55966.44;;;-140.56;44.46
10482;BME280;5288;42.334;23.876;2023-09-08T08:42:55;55966.44;;;-140.56;43.87
10482;BME280;5288;42.334;23.876;2023-09-08T08:45:23;55972.38;;;-140.56;44.15
10482;BME280;5288;42.334;23.876;2023-09-08T08:47:51;55976.31;;;-140.56;44.10
10482;BME280;5288;42.334;23.876;2023-09-08T08:50:19;55990.16;;;-140.56;44.98
10482;BME280;5288;42.334;23.876;2023-09-08T08:52:47;56009.91;;;-140.56;45.00
10482;BME280;5288;42.334;23.876;2023-09-08T08:55:14;55994.13;;;-140.56;46.16
10482;BME280;5288;42.334;23.876;2023-09-08T08:57:41;56000.03;;;-140.56;43.43
10482;BME280;5288;42.334;23.876;2023-09-08T09:00:10;56004.00;;;-140.56;43.80
10482;BME280;5288;42.334;23.876;2023-09-08T09:02:39;55960.53;;;-140.56;42.71
10482;BME280;5288;42.334;23.876;2023-09-08T09:05:08;55980.28;;;-140.56;43.21
10482;BME280;5288;42.334;23.876;2023-09-08T09:07:35;56000.03;;;-140.56;44.10
10482;BME280;5288;42.334;23.876;2023-09-08T09:10:05;56007.94;;;-140.56;43.71
10482;BME280;5288;42.334;23.876;2023-09-08T09:12:32;55964.47;;;-140.56;43.11
10482;BME280;5288;42.334;23.876;2023-09-08T09:14:59;55976.31;;;-140.56;42.43
10482;BME280;5288;42.334;23.876;2023-09-08T09:17:26;55952.63;;;-140.56;44.65
10482;BME280;5288;42.334;23.876;2023-09-08T09:20:12;55911.13;;;-140.56;42.77
10482;BME280;5288;42.334;23.876;2023-09-08T09:22:39;55922.97;;;-140.56;41.07
10482;BME280;5288;42.334;23.876;2023-09-08T09:25:08;55946.69;;;-140.56;41.05
10482;BME280;5288;42.334;23.876;2023-09-08T09:27:36;55934.81;;;-140.56;41.54
10482;BME280;5288;42.334;23.876;2023-09-08T09:30:07;55924.94;;;-140.56;44.09
10482;BME280;5288;42.334;23.876;2023-09-08T09:32:35;55946.69;;;-140.56;41.63
10482;BME280;5288;42.334;23.876;2023-09-08T09:35:03;55932.84;;;-140.56;41.92
10482;BME280;5288;42.334;23.876;2023-09-08T09:37:30;55934.81;;;-140.56;41.99
10482;BME280;5288;42.334;23.876;2023-09-08T09:39:57;55944.72;;;-140.56;41.48
10482;BME280;5288;42.334;23.876;2023-09-08T09:42:28;55928.91;;;-140.56;42.31
10482;BME280;5288;42.334;23.876;2023-09-08T09:44:55;55932.84;;;-140.56;41.14
10482;BME280;5288;42.334;23.876;2023-09-08T09:47:22;55970.41;;;-140.56;40.90
10482;BME280;5288;42.334;23.876;2023-09-08T09:49:49;55972.38;;;-140.56;41.61
10482;BME280;5288;42.334;23.876;2023-09-08T09:52:21;55936.81;;;-140.56;40.47
10482;BME280;5288;42.334;23.876;2023-09-08T09:54:48;55934.81;;;-140.56;40.34
10482;BME280;5288;42.334;23.876;2023-09-08T09:57:20;55970.41;;;-140.56;40.53
10482;BME280;5288;42.334;23.876;2023-09-08T09:59:48;55950.63;;;-140.56;39.98
10482;BME280;5288;42.334;23.876;2023-09-08T10:02:18;55954.59;;;-140.56;38.83
10482;BME280;5288;42.334;23.876;2023-09-08T10:04:47;55907.16;;;-140.56;39.22
10482;BME280;5288;42.334;23.876;2023-09-08T10:07:15;55893.34;;;-140.56;38.17
10482;BME280;5288;42.334;23.876;2023-09-08T10:09:43;55924.94;;;-140.56;38.79
10482;BME280;5288;42.334;23.876;2023-09-08T10:12:13;55946.69;;;-140.56;38.86
10482;BME280;5288;42.334;23.876;2023-09-08T10:14:42;55913.09;;;-140.56;38.98
10482;BME280;5288;42.334;23.876;2023-09-08T10:17:15;55903.22;;;-140.56;37.64
10482;BME280;5288;42.334;23.876;2023-09-08T10:19:45;55897.28;;;-140.56;38.40
10482;BME280;5288;42.334;23.876;2023-09-08T10:22:20;55865.66;;;-140.56;38.08
10482;BME280;5288;42.334;23.876;2023-09-08T10:24:50;55905.19;;;-140.56;38.43
10482;BME280;5288;42.334;23.876;2023-09-08T10:27:19;55889.38;;;-140.56;38.73
10482;BME280;5288;42.334;23.876;2023-09-08T10:29:49;55875.53;;;-140.56;36.96
10482;BME280;5288;42.334;23.876;2023-09-08T10:32:20;55911.13;;;-140.56;37.19
10482;BME280;5288;42.334;23.876;2023-09-08T10:34:47;55915.06;;;-140.56;36.78
10482;BME280;5288;42.334;23.876;2023-09-08T10:37:22;55885.44;;;-140.56;37.25
10482;BME280;5288;42.334;23.876;2023-09-08T10:39:50;55889.38;;;-140.56;37.34
10482;BME280;5288;42.334;23.876;2023-09-08T10:42:22;55865.66;;;-140.56;36.64
10482;BME280;5288;42.334;23.876;2023-09-08T10:45:01;55855.78;;;-140.56;38.25
10482;BME280;5288;42.334;23.876;2023-09-08T10:47:53;55883.44;;;-140.56;37.41
10482;BME280;5288;42.334;23.876;2023-09-08T10:50:27;55889.38;;;-140.56;37.97
10482;BME280;5288;42.334;23.876;2023-09-08T10:53:05;55895.31;;;-140.56;37.61
10482;BME280;5288;42.334;23.876;2023-09-08T10:55:35;55877.53;;;-140.56;37.40
10482;BME280;5288;42.334;23.876;2023-09-08T10:58:04;55881.47;;;-140.56;37.17
10482;BME280;5288;42.334;23.876;2023-09-08T11:00:43;55859.75;;;-140.56;37.38
10482;BME280;5288;42.334;23.876;2023-09-08T11:03:12;55895.31;;;-140.56;36.38
10482;BME280;5288;42.334;23.876;2023-09-08T11:05:41;55857.75;;;-140.56;37.09
10482;BME280;5288;42.334;23.876;2023-09-08T11:08:10;55865.66;;;-140.56;37.22
10482;BME280;5288;42.334;23.876;2023-09-08T11:10:37;55849.84;;;-140.56;37.55
10482;BME280;5288;42.334;23.876;2023-09-08T11:13:06;55822.19;;;-140.56;38.59
10482;BME280;5288;42.334;23.876;2023-09-08T11:15:34;55887.41;;;-140.56;36.92
10482;BME280;5288;42.334;23.876;2023-09-08T11:18:09;55861.72;;;-140.56;37.13
10482;BME280;5288;42.334;23.876;2023-09-08T11:20:38;55871.59;;;-140.56;37.21
10482;BME280;5288;42.334;23.876;2023-09-08T11:23:05;55871.59;;;-140.56;38.03
10482;BME280;5288;42.334;23.876;2023-09-08T11:25:33;55843.94;;;-140.56;37.09
10482;BME280;5288;42.334;23.876;2023-09-08T11:28:01;55822.19;;;-140.56;37.30
10482;BME280;5288;42.334;23.876;2023-09-08T11:30:28;55826.16;;;-140.56;35.58
10482;BME280;5288;42.334;23.876;2023-09-08T11:32:55;55806.38;;;-140.56;38.87
10482;BME280;5288;42.334;23.876;2023-09-08T11:35:27;55832.06;;;-140.56;36.61
10482;BME280;5288;42.334;23.876;2023-09-08T11:38:00;55849.84;;;-140.56;36.54
10482;BME280;5288;42.334;23.876;2023-09-08T11:40:30;55847.88;;;-140.56;37.18
10482;BME280;5288;42.334;23.876;2023-09-08T11:42:58;55857.75;;;-140.56;38.03
10482;BME280;5288;42.334;23.876;2023-09-08T11:45:25;55826.16;;;-140.56;38.23
10482;BME280;5288;42.334;23.876;2023-09-08T11:47:53;55804.41;;;-140.56;38.54
10482;BME280;5288;42.334;23.876;2023-09-08T11:50:20;55794.53;;;-140.56;37.76
10482;BME280;5288;42.334;23.876;2023-09-08T11:52:50;55804.41;;;-140.56;36.05
10482;BME280;5288;42.334;23.876;2023-09-08T11:55:20;55828.13;;;-140.56;36.08
10482;BME280;5288;42.334;23.876;2023-09-08T11:57:49;55796.50;;;-140.56;38.62
10482;BME280;5288;42.334;23.876;2023-09-08T12:00:18;55802.44;;;-140.56;37.42
10482;BME280;5288;42.334;23.876;2023-09-08T12:02:48;55845.91;;;-140.56;36.85
10482;BME280;5288;42.334;23.876;2023-09-08T12:05:21;55824.16;;;-140.56;38.00
10482;BME280;5288;42.334;23.876;2023-09-08T12:07:48;55820.22;;;-140.56;37.94
10482;BME280;5288;42.334;23.876;2023-09-08T12:10:19;55814.28;;;-140.56;36.80
10482;BME280;5288;42.334;23.876;2023-09-08T12:12:48;55796.50;;;-140.56;38.74
10482;BME280;5288;42.334;23.876;2023-09-08T12:15:31;55838.00;;;-140.56;36.87
10482;BME280;5288;42.334;23.876;2023-09-08T12:17:59;55863.69;;;-140.56;37.89
10482;BME280;5288;42.334;23.876;2023-09-08T12:20:27;55859.75;;;-140.56;37.92
10482;BME280;5288;42.334;23.876;2023-09-08T12:22:54;55847.88;;;-140.56;37.48
10482;BME280;5288;42.334;23.876;2023-09-08T12:25:22;55871.59;;;-140.56;36.89
10482;BME280;5288;42.334;23.876;2023-09-08T12:27:50;55843.94;;;-140.56;36.83
10482;BME280;5288;42.334;23.876;2023-09-08T12:30:18;55832.06;;;-140.56;36.78
10482;BME280;5288;42.334;23.876;2023-09-08T12:32:47;55849.84;;;-140.56;36.82
10482;BME280;5288;42.334;23.876;2023-09-08T12:35:20;55838.00;;;-140.56;37.19
10482;BME280;5288;42.334;23.876;2023-09-08T12:37:51;55849.84;;;-140.56;37.66
10482;BME280;5288;42.334;23.876;2023-09-08T12:40:19;55853.81;;;-140.56;37.21
10482;BME280;5288;42.334;23.876;2023-09-08T12:42:47;55857.75;;;-140.56;39.38